Kinmundy, Illinois
Current Conditions -  °F | °C
As of 12:15 PM on Tuesday 21 Oct 2014 (Local Time) from KSLO Reporting Station
Clear Clear  
Wind Chill: 64°   Ceiling: Unl
Heat Index: 64°   Visibility: 10mi
Dew Point: 47°   Wind: 6mph
Humidity: 53%   Direction: 350°N
Pressure: 30.13"   Gusts: NA
Location:  38.77°N, 88.85°W
Report Text: KSLO 211715Z AUTO 35005KT 10SM CLR 18/08 A3013 RMK AO2 T01800083
Loading
Personal Weather Stations






























Interactive Weather Map
Tropical Storm Tracking
New forecast layout! Learn more

10-Day Weather Forecast

Advertisements
Track Severe Weather on mobile